Sandy, UT

7:54 PM MDT on August 29, 2014 (GMT -0600)
9400 EXPO CENTER TRAX STOP | Change Station
CLOSE
Current Station
Personal Weather Station
Location: Sandy, UT
Elevation: 4495 ft
Nearby Weather Stations

Elev 4495 ft 40.58 °N, 111.89 °W | Updated 9 seconds ago

Mostly Cloudy
Mostly Cloudy
76.3 °F
Feels Like 78 °F
N
0.0
Wind Variable Wind from WSW
Gusts 1.0 mph

Today
High -- | Low -- °F
--% Chance of Precip.
Yesterday
High -- | Low -- °F
Precip. -- in
6:51 AM 8:04 PM
Waxing Crescent, 18% visible
Pressure 29.81 in
Visibility 10.0 miles
Clouds Few 8000 ft
Few 10000 ft
Scattered Clouds 15000 ft
Mostly Cloudy 22000 ft
Heat Index 78 °F
Dew Point 48 °F
Humidity 37%
Rainfall 0.00 in
Snow Depth Not available.
UV 0 out of 12
Pollen 8.10 out of 12
PM2.5 Good
Flu Activity Not available.
METAR KSLC 300053Z 16009KT 10SM FEW080 FEW100 SCT150 BKN220 29/03 A2996 RMK AO2 SLP093 SCSL DSNT E ACSL DSNT W T02940033

More Conditions Fewer Conditions

Pressure 29.81 in
Visibility 10.0 miles
Clouds Few 8000 ft
Few 10000 ft
Scattered Clouds 15000 ft
Mostly Cloudy 22000 ft
Heat Index 78 °F
Dew Point 48 °F
Humidity 37%
Rainfall 0.00 in
Snow Depth Not available.
UV 0 out of 12
Pollen 8.10 out of 12
PM2.5 Good
Flu Activity Not available.
METAR KSLC 300053Z 16009KT 10SM FEW080 FEW100 SCT150 BKN220 29/03 A2996 RMK AO2 SLP093 SCSL DSNT E ACSL DSNT W T02940033

More Conditions Fewer Conditions

10-Day Weather Forecast

Almanac

Astronomy

Aug. 29, 2014 Rise Set
Actual Time 6:51 AM MDT 8:04 PM MDT
Civil Twilight 6:23 AM MDT 8:32 PM MDT
Nautical Twilight 5:49 AM MDT 9:06 PM MDT
Astronomical Twilight 5:14 AM MDT 9:41 PM MDT
Moon 10:46 AM MDT (8/29) 10:02 PM MDT (8/29)
Length of Visible Light 14h 08m
Length of Day
13h 12m
Tomorrow will be 2m 34s shorter.
Waxing Crescent, 18% of the Moon is Illuminated
Today
Waxing Crescent
Sep 2
First Quarter
Sep 8
Full
Sep 15
Last Quarter
Sep 24
New

Today's Extremes

State Highs State Lows

Community

WunderPhotos

Upload Photos

1,748,403 photos uploaded!

Nearby

Air Quality

  Air Quality AQ Index Pollutant
Yesterday Good
OZONE
Yesterday Good
PM2.5
Current Good
PM2.5
Friday Moderate
OZONE
Saturday Moderate
OZONE
Sunday Good
OZONE

Snow Depth

Station Depth Elevation
Trial Lake 0 in 9960 ft
Ben Lomond Peak 0 in 8000 ft
Ben Lomond Trail 0 in 6000 ft
Little Bear 0 in 6550 ft
Lakefork Basin 0 in 10900 ft

Earthquake Activity

City Distance Mag. Time & Date
No recent earthquake activity has been reported nearby.
Minimum magnitude displayed is 2.5.

Coastal Water Temperatures

Place Temperature
No Stations Reporting

Nearby Weather Stations